Time;durP1;ratioP1;P1;durP2;ratioP2;P2;SDS_P1;SDS_P2;PMS_P1;PMS_P2;Temp;Humidity;BMP_temperature;BMP_pressure;BME280_temperature;BME280_humidity;BME280_pressure;Samples;Min_cycle;Max_cycle;Signal;HPM_P1;HPM_P2
2022/01/16 07:32:15;;;;;;;;;;;;;;;5.23;100.00;99128.56;6215376;22;19954;31
2022/01/16 07:34:42;;;;;;;;;;;;;;;6.85;100.00;99133.81;6158813;23;19959;-68
2022/01/16 07:37:10;;;;;;;;;;;;;;;8.75;100.00;99134.31;6159564;23;20252;-69
2022/01/16 07:39:38;;;;;;;;;;;;;;;10.87;99.14;99136.06;6157221;23;20226;-69
2022/01/16 07:42:06;;;;;;;;;;;;;;;12.88;75.56;99146.41;6159361;23;19949;-68
2022/01/16 07:44:33;;;;;;;;;;;;;;;14.76;61.17;99157.69;6159780;23;20238;-68
2022/01/16 07:47:00;;;;;;;;;;;;;;;16.27;50.21;99164.63;6159039;23;19940;-68
2022/01/16 07:49:28;;;;;;;;;;;;;;;16.79;46.43;99159.75;6159194;23;19942;-68
2022/01/16 07:51:55;;;;;;;;;;;;;;;18.57;42.07;99161.84;6158518;23;19944;-69
2022/01/16 07:54:23;;;;;;;;;;;;;;;19.60;36.63;99148.13;6159509;23;19949;-67
2022/01/16 07:56:50;;;;;;;;;;;;;;;19.55;35.64;99145.81;6159521;23;19966;-67
2022/01/16 07:59:17;;;;;;;;;;;;;;;20.61;34.75;99142.56;6160210;23;19935;-67
2022/01/16 08:01:45;;;;;;;;;;;;;;;21.74;32.29;99143.03;6160210;23;20001;-67
2022/01/16 08:04:12;;;;;;;;;;;;;;;22.24;30.82;99150.88;6158839;23;19940;-66
2022/01/16 08:06:40;;;;;;;;;;;;;;;21.79;29.90;99153.88;6158923;23;20298;-67
2022/01/16 08:09:07;;;;;;;;;;;;;;;22.16;29.20;99160.88;6158781;23;19944;-68
2022/01/16 08:11:34;;;;;;;;;;;;;;;22.59;28.73;99160.31;6158888;23;19953;-69
2022/01/16 08:14:01;;;;;;;;;;;;;;;22.37;28.05;99160.22;6158885;23;19940;-69
2022/01/16 08:16:29;;;;;;;;;;;;;;;22.43;29.04;99160.44;6158740;23;19943;-70
2022/01/16 08:18:56;;;;;;;;;;;;;;;23.10;27.87;99161.03;6158492;23;20204;-68
2022/01/16 08:21:24;;;;;;;;;;;;;;;22.75;27.33;99163.84;6158899;23;19956;-69
2022/01/16 08:23:51;;;;;;;;;;;;;;;23.64;26.71;99170.06;6158566;23;19937;-69
2022/01/16 08:26:18;;;;;;;;;;;;;;;25.25;24.82;99166.75;6159580;23;20214;-69
2022/01/16 08:28:46;;;;;;;;;;;;;;;25.31;24.45;99168.50;6158358;23;19958;-68
2022/01/16 08:31:13;;;;;;;;;;;;;;;25.42;24.39;99180.28;6158392;23;19941;-70
2022/01/16 08:33:40;;;;;;;;;;;;;;;26.49;23.19;99182.66;6175302;23;19963;-69
2022/01/16 08:36:08;;;;;;;;;;;;;;;26.08;23.66;99186.28;6189205;23;19934;-69
2022/01/16 08:38:35;;;;;;;;;;;;;;;24.64;25.40;99179.19;6188203;23;20208;-68
2022/01/16 08:41:03;;;;;;;;;;;;;;;23.10;27.09;99178.13;6187919;23;19936;-69
2022/01/16 08:43:30;;;;;;;;;;;;;;;22.50;27.60;99177.28;6188297;23;19934;-69
2022/01/16 08:45:58;;;;;;;;;;;;;;;21.68;29.37;99175.38;6189370;23;19945;-68
2022/01/16 08:48:26;;;;;;;;;;;;;;;21.02;29.53;99182.47;6187719;23;20369;-68
2022/01/16 08:50:53;;;;;;;;;;;;;;;20.06;31.09;99180.38;6187828;23;19946;-69
2022/01/16 08:53:20;;;;;;;;;;;;;;;18.77;32.82;99185.38;6188364;23;19946;-71
2022/01/16 08:55:48;;;;;;;;;;;;;;;17.47;36.75;99183.22;6188859;23;19941;-69
2022/01/16 08:58:15;;;;;;;;;;;;;;;16.40;39.05;99174.22;6187448;23;19942;-69
2022/01/16 09:00:43;;;;;;;;;;;;;;;15.46;42.09;99176.41;6188366;23;19945;-69
2022/01/16 09:03:11;;;;;;;;;;;;;;;14.90;44.35;99171.72;6187336;23;20399;-69
2022/01/16 09:05:38;;;;;;;;;;;;;;;14.45;47.60;99170.56;6188128;23;19945;-69
2022/01/16 09:08:05;;;;;;;;;;;;;;;13.96;53.32;99186.59;6187271;23;19961;-68
2022/01/16 09:10:33;;;;;;;;;;;;;;;13.39;54.30;99180.78;6187487;23;19964;-69
2022/01/16 09:13:00;;;;;;;;;;;;;;;13.16;56.39;99174.66;6188222;23;19941;-69
2022/01/16 09:15:27;;;;;;;;;;;;;;;12.94;57.91;99181.31;6187683;23;19950;-69
2022/01/16 09:17:55;;;;;;;;;;;;;;;12.73;60.90;99181.19;6187514;23;20175;-69
2022/01/16 09:20:22;;;;;;;;;;;;;;;12.57;61.52;99178.66;6189018;23;20267;-68
2022/01/16 09:22:49;;;;;;;;;;;;;;;12.35;62.75;99176.91;6188005;23;19953;-68
2022/01/16 09:25:20;;;;;;;;;;;;;;;12.21;63.98;99176.78;6188026;23;19950;-68
2022/01/16 09:27:48;;;;;;;;;;;;;;;12.10;66.29;99176.72;6187591;23;19970;-68
2022/01/16 09:30:16;;;;;;;;;;;;;;;12.00;65.82;99185.81;6187823;23;19948;-68
2022/01/16 09:32:43;;;;;;;;;;;;;;;11.81;67.04;99181.22;6187164;23;19965;-69
2022/01/16 09:35:11;;;;;;;;;;;;;;;11.76;67.28;99173.16;6187407;23;19954;-68
2022/01/16 09:37:39;;;;;;;;;;;;;;;11.76;69.16;99175.97;6187353;23;19943;-68
2022/01/16 09:40:07;;;;;;;;;;;;;;;11.72;68.38;99165.91;6187342;23;19943;-68
2022/01/16 09:42:34;;;;;;;;;;;;;;;11.65;69.39;99165.81;6185734;23;20209;-69
2022/01/16 09:45:06;;;;;;;;;;;;;;;11.64;69.32;99158.59;6186669;23;19943;-68
2022/01/16 09:47:35;;;;;;;;;;;;;;;11.59;69.22;99161.75;6188305;23;19963;-68
2022/01/16 09:50:05;;;;;;;;;;;;;;;11.57;69.10;99153.72;6188088;23;19944;-68
2022/01/16 09:52:39;;;;;;;;;;;;;;;11.56;69.72;99149.31;6187166;23;19943;-69
2022/01/16 09:55:07;;;;;;;;;;;;;;;11.59;70.23;99156.16;6187187;23;19942;-69
2022/01/16 09:57:35;;;;;;;;;;;;;;;11.45;72.14;99148.38;6187826;23;20010;-68
2022/01/16 10:00:07;;;;;;;;;;;;;;;11.53;72.24;99146.47;6187557;23;20331;-68
2022/01/16 10:02:44;;;;;;;;;;;;;;;11.52;73.01;99142.03;6187857;23;20203;-68
2022/01/16 10:05:37;;;;;;;;;;;;;;;11.56;74.06;99140.91;6188689;23;20317;-68
2022/01/16 10:08:06;;;;;;;;;;;;;;;11.72;74.88;99146.28;6182706;23;20172;-68
2022/01/16 10:10:35;;;;;;;;;;;;;;;11.84;74.52;99143.22;6188657;23;19940;-69
2022/01/16 10:13:20;;;;;;;;;;;;;;;11.97;74.43;99147.34;6187384;23;19939;-68
2022/01/16 10:16:05;;;;;;;;;;;;;;;11.96;74.74;99130.94;6198419;23;19956;-69
2022/01/16 10:18:39;;;;;;;;;;;;;;;12.12;73.88;99131.44;6183095;23;19945;-69
2022/01/16 10:21:07;;;;;;;;;;;;;;;12.23;73.62;99119.13;6188128;23;19939;-68
2022/01/16 10:23:39;;;;;;;;;;;;;;;12.25;73.81;99111.13;6187671;23;19950;-68
2022/01/16 10:26:16;;;;;;;;;;;;;;;12.46;73.93;99113.28;6185902;23;19951;-68
2022/01/16 10:28:43;;;;;;;;;;;;;;;12.43;74.29;99116.88;6186597;23;19968;-69
2022/01/16 10:31:17;;;;;;;;;;;;;;;12.33;75.16;99104.38;6187418;23;20223;-68
2022/01/16 10:33:45;;;;;;;;;;;;;;;12.30;75.90;99104.38;6175809;23;19970;-68
2022/01/16 10:36:12;;;;;;;;;;;;;;;12.26;76.84;99101.53;6188819;23;19939;-68
2022/01/16 10:38:40;;;;;;;;;;;;;;;12.21;76.79;99096.28;6189046;23;19945;-69
2022/01/16 10:43:15;;;;;;;;;;;;;;;12.15;79.24;99095.03;5099100;28;20009;-69
2022/01/16 10:45:43;;;;;;;;;;;;;;;12.16;80.18;99096.63;5105120;28;19944;-69
2022/01/16 10:48:12;;;;;;;;;;;;;;;12.08;78.68;99091.38;5081045;28;20240;-69
2022/01/16 10:50:47;;;;;;;;;;;;;;;12.18;78.49;99085.84;5100442;28;19967;-69
2022/01/16 10:53:19;;;;;;;;;;;;;;;12.38;77.13;99089.19;5099978;28;19953;-69
2022/01/16 10:55:47;;;;;;;;;;;;;;;12.47;76.09;99081.25;5090476;28;19946;-69
2022/01/16 10:58:18;;;;;;;;;;;;;;;12.52;75.31;99078.03;5101439;28;19956;-69
2022/01/16 11:00:52;;;;;;;;;;;;;;;12.52;75.12;99083.66;5105699;28;19949;-69
2022/01/16 11:03:20;;;;;;;;;;;;;;;12.38;75.21;99077.97;5090369;28;19953;-69
2022/01/16 11:05:48;;;;;;;;;;;;;;;12.28;76.54;99079.50;5089712;28;19941;-69
2022/01/16 11:08:16;;;;;;;;;;;;;;;12.32;75.76;99074.72;5108700;28;19983;-69
2022/01/16 11:11:02;;;;;;;;;;;;;;;12.37;75.49;99077.16;5106994;28;19955;-69
2022/01/16 11:13:32;;;;;;;;;;;;;;;12.39;75.17;99077.59;5086823;28;19969;-69
2022/01/16 11:16:02;;;;;;;;;;;;;;;12.37;75.56;99077.16;5085035;28;19957;-69
2022/01/16 11:18:29;;;;;;;;;;;;;;;12.36;75.28;99074.75;5082677;28;19960;-69
2022/01/16 11:21:13;;;;;;;;;;;;;;;12.19;76.25;99067.84;5091087;28;20210;-69
2022/01/16 11:26:19;;;;;;;;;;;;;;;11.96;79.96;99070.03;5092120;28;19947;-68
2022/01/16 11:28:47;;;;;;;;;;;;;;;11.45;82.54;99057.94;5090776;28;19946;-68
2022/01/16 11:31:14;;;;;;;;;;;;;;;11.72;81.82;99060.25;5093740;28;19951;-69
2022/01/16 11:33:43;;;;;;;;;;;;;;;11.62;81.10;99048.91;5091867;28;19949;-69
2022/01/16 11:36:16;;;;;;;;;;;;;;;11.34;83.75;99048.66;5091889;28;19952;-68
2022/01/16 11:38:57;;;;;;;;;;;;;;;11.25;84.38;99039.78;5093244;28;19956;-68
2022/01/16 11:41:32;;;;;;;;;;;;;;;11.34;84.33;99049.47;5092142;28;19976;-69
2022/01/16 11:44:00;;;;;;;;;;;;;;;11.45;83.63;99041.97;5093779;28;19950;-69
2022/01/16 11:46:30;;;;;;;;;;;;;;;11.27;85.06;99040.19;5090915;28;19960;-69
2022/01/16 11:48:58;;;;;;;;;;;;;;;11.47;85.06;99047.19;5092987;28;20314;-69
2022/01/16 11:51:32;;;;;;;;;;;;;;;11.51;88.37;99042.41;5093308;28;19979;-69
2022/01/16 11:54:04;;;;;;;;;;;;;;;11.64;87.36;99047.34;5079618;28;20099;-69
2022/01/16 11:56:37;;;;;;;;;;;;;;;11.62;85.32;99046.09;5078225;28;19948;-69
2022/01/16 11:59:18;;;;;;;;;;;;;;;11.46;85.76;99028.75;5078584;27;19949;-69
2022/01/16 12:02:02;;;;;;;;;;;;;;;11.44;85.78;99020.75;5080534;28;19964;-69
2022/01/16 12:04:29;;;;;;;;;;;;;;;11.58;85.34;99023.69;5078768;28;19957;-68
2022/01/16 12:07:17;;;;;;;;;;;;;;;11.64;84.16;99016.50;5079586;28;19944;-69
2022/01/16 12:12:11;;;;;;;;;;;;;;;11.61;86.72;99011.72;5071433;28;19960;-69
2022/01/16 12:14:58;;;;;;;;;;;;;;;11.66;86.85;99011.31;5076229;28;19945;-69
2022/01/16 12:17:28;;;;;;;;;;;;;;;11.59;87.90;99004.88;5078106;27;19946;-69
2022/01/16 12:19:59;;;;;;;;;;;;;;;11.54;91.61;98999.63;5075298;28;19960;-69
2022/01/16 12:22:46;;;;;;;;;;;;;;;11.53;90.33;99004.44;5077710;28;19966;-69
2022/01/16 12:25:18;;;;;;;;;;;;;;;11.44;90.16;99000.34;5079848;28;19956;-69
2022/01/16 12:27:45;;;;;;;;;;;;;;;11.39;90.76;98995.09;5077347;28;20349;-69
2022/01/16 12:30:22;;;;;;;;;;;;;;;11.33;93.19;98988.22;5094977;28;19949;-69
2022/01/16 12:32:57;;;;;;;;;;;;;;;11.14;94.30;98978.88;5078233;28;19970;-69
2022/01/16 12:35:55;;;;;;;;;;;;;;;11.02;98.28;98981.97;5074167;28;19962;-69
2022/01/16 12:38:23;;;;;;;;;;;;;;;10.80;99.25;98974.53;5066026;28;19946;-69
2022/01/16 12:40:59;;;;;;;;;;;;;;;10.52;100.00;98974.19;5070150;28;19947;-69
2022/01/16 12:43:31;;;;;;;;;;;;;;;10.50;100.00;98970.97;5065391;28;19969;-68
2022/01/16 12:46:00;;;;;;;;;;;;;;;10.46;100.00;98970.13;5065179;28;20382;-69
2022/01/16 12:48:27;;;;;;;;;;;;;;;9.96;100.00;98956.63;5094491;28;19957;-69
2022/01/16 12:50:59;;;;;;;;;;;;;;;9.83;100.00;98956.88;5080762;28;19959;-69
2022/01/16 12:53:41;;;;;;;;;;;;;;;9.92;100.00;98948.22;5083297;28;19954;-69
2022/01/16 12:56:14;;;;;;;;;;;;;;;9.97;100.00;98952.66;5074273;28;19948;-69
2022/01/16 12:58:42;;;;;;;;;;;;;;;9.52;100.00;98939.63;5080194;28;19956;-69
2022/01/16 13:01:09;;;;;;;;;;;;;;;9.49;100.00;98940.38;5074509;28;19960;-68
2022/01/16 13:03:37;;;;;;;;;;;;;;;9.63;100.00;98940.63;5076410;28;19965;-74
2022/01/16 13:06:19;;;;;;;;;;;;;;;9.90;100.00;98934.63;5075067;28;19951;-69
2022/01/16 13:08:50;;;;;;;;;;;;;;;10.03;100.00;98923.19;5083564;28;19949;-68
2022/01/16 13:11:17;;;;;;;;;;;;;;;10.05;100.00;98930.03;5086632;28;19948;-68
2022/01/16 13:13:46;;;;;;;;;;;;;;;9.80;100.00;98920.53;5074088;28;19961;-69
2022/01/16 13:16:20;;;;;;;;;;;;;;;9.69;100.00;98911.16;5074426;28;20241;-69
2022/01/16 13:19:07;;;;;;;;;;;;;;;9.90;100.00;98920.66;5077746;28;19949;-68
2022/01/16 13:21:40;;;;;;;;;;;;;;;9.83;100.00;98920.56;5077194;28;19958;-68
2022/01/16 13:24:22;;;;;;;;;;;;;;;9.90;100.00;98917.84;5085641;28;19965;-69
2022/01/16 13:26:49;;;;;;;;;;;;;;;9.83;100.00;98923.34;5071864;28;19953;-68
2022/01/16 13:29:19;;;;;;;;;;;;;;;9.71;100.00;98915.19;5076572;28;19952;-68
2022/01/16 13:31:47;;;;;;;;;;;;;;;9.55;100.00;98905.38;5073331;28;19951;-69
2022/01/16 13:34:35;;;;;;;;;;;;;;;9.53;100.00;98910.53;5069705;28;19952;-69
2022/01/16 13:37:03;;;;;;;;;;;;;;;9.32;100.00;98908.22;5065952;28;19947;-69
2022/01/16 13:39:44;;;;;;;;;;;;;;;9.47;100.00;98910.06;5069614;28;19953;-69
2022/01/16 13:42:18;;;;;;;;;;;;;;;9.20;100.00;98903.66;5070546;28;20252;-68
2022/01/16 13:44:46;;;;;;;;;;;;;;;9.42;100.00;98895.59;5076157;28;20243;-69
2022/01/16 13:47:21;;;;;;;;;;;;;;;9.44;100.00;98905.22;5086871;28;19956;-69
2022/01/16 13:49:50;;;;;;;;;;;;;;;9.35;100.00;98901.06;5070833;28;19950;-69
2022/01/16 13:52:25;;;;;;;;;;;;;;;9.16;100.00;98904.78;5085023;28;19952;-69
2022/01/16 13:55:06;;;;;;;;;;;;;;;9.28;100.00;98904.56;5076545;28;19948;-69
2022/01/16 13:57:34;;;;;;;;;;;;;;;9.38;100.00;98906.72;5071856;28;19955;-69
2022/01/16 14:00:05;;;;;;;;;;;;;;;9.31;100.00;98915.00;5095083;28;19950;-69
2022/01/16 14:02:34;;;;;;;;;;;;;;;9.16;100.00;98907.56;5082943;28;19963;-69
2022/01/16 14:05:02;;;;;;;;;;;;;;;9.06;100.00;98909.00;5089213;28;19944;-69
2022/01/16 14:07:30;;;;;;;;;;;;;;;9.10;100.00;98915.44;5086296;28;19960;-69
2022/01/16 14:09:57;;;;;;;;;;;;;;;9.14;100.00;98923.88;5091423;28;19956;-69
2022/01/16 14:12:25;;;;;;;;;;;;;;;9.06;100.00;98914.59;5073887;28;20235;-68
2022/01/16 14:14:52;;;;;;;;;;;;;;;9.07;100.00;98921.75;5072809;28;19948;-69
2022/01/16 14:22:20;;;;;;;;;;;;;;;8.99;100.00;98913.66;5070290;28;19951;-69
2022/01/16 14:24:48;;;;;;;;;;;;;;;8.91;100.00;98920.28;5086714;28;19976;-69
2022/01/16 14:27:18;;;;;;;;;;;;;;;8.81;100.00;98918.09;5084717;28;19951;-69
2022/01/16 14:29:47;;;;;;;;;;;;;;;8.84;100.00;98918.19;5092727;28;20255;-68
2022/01/16 14:32:15;;;;;;;;;;;;;;;8.77;100.00;98912.47;5078110;28;19956;-68
2022/01/16 14:34:43;;;;;;;;;;;;;;;8.82;100.00;98917.75;5078467;28;19960;-69
2022/01/16 14:37:11;;;;;;;;;;;;;;;8.80;100.00;98913.72;5084766;28;20364;-69
2022/01/16 14:39:39;;;;;;;;;;;;;;;8.80;100.00;98920.09;5071850;28;19949;-69
2022/01/16 14:42:07;;;;;;;;;;;;;;;8.77;100.00;98923.63;5074399;28;19967;-69
2022/01/16 14:44:36;;;;;;;;;;;;;;;8.81;100.00;98921.69;5080703;28;19977;-68
2022/01/16 14:47:04;;;;;;;;;;;;;;;8.72;100.00;98915.56;5080230;28;20227;-69
2022/01/16 14:49:32;;;;;;;;;;;;;;;8.72;100.00;98915.56;5083354;28;19950;-68
2022/01/16 14:51:59;;;;;;;;;;;;;;;8.70;100.00;98920.72;5067010;28;19959;-69
2022/01/16 14:54:43;;;;;;;;;;;;;;;8.65;100.00;98911.84;5061410;28;19954;-69
2022/01/16 14:57:11;;;;;;;;;;;;;;;8.55;100.00;98914.06;5057611;28;19952;-68
2022/01/16 14:59:38;;;;;;;;;;;;;;;8.58;100.00;98920.91;5064086;28;19951;-69
2022/01/16 15:02:05;;;;;;;;;;;;;;;8.55;100.00;98908.50;5060864;28;19952;-68
2022/01/16 15:04:33;;;;;;;;;;;;;;;8.51;100.00;98904.81;5060199;28;20282;-69
2022/01/16 15:07:01;;;;;;;;;;;;;;;8.51;100.00;98906.78;5059875;28;19981;-69
2022/01/16 15:09:28;;;;;;;;;;;;;;;8.41;100.00;98911.00;5060939;28;19953;-68
2022/01/16 15:11:55;;;;;;;;;;;;;;;8.42;100.00;98922.94;5058632;28;19948;-69
2022/01/16 15:14:23;;;;;;;;;;;;;;;8.32;100.00;98915.19;5066154;28;19957;-69
2022/01/16 15:16:55;;;;;;;;;;;;;;;8.31;100.00;98922.75;5064172;28;19952;-68
2022/01/16 15:19:29;;;;;;;;;;;;;;;8.31;100.00;98911.63;5071237;28;20247;-68
2022/01/16 15:24:39;;;;;;;;;;;;;;;8.22;100.00;98913.78;5076319;28;19975;-69
2022/01/16 15:27:08;;;;;;;;;;;;;;;8.11;100.00;98917.53;5082443;28;19950;-68
2022/01/16 15:29:36;;;;;;;;;;;;;;;8.03;100.00;98916.56;5074463;28;19951;-68
2022/01/16 15:32:04;;;;;;;;;;;;;;;8.01;100.00;98912.53;5082285;28;19953;-69
2022/01/16 15:34:31;;;;;;;;;;;;;;;7.90;100.00;98912.28;5079125;28;19945;-69
2022/01/16 15:37:16;;;;;;;;;;;;;;;7.88;100.00;98909.06;5079819;28;19948;-68
2022/01/16 15:39:44;;;;;;;;;;;;;;;7.91;100.00;98897.22;5079231;28;19952;-69
2022/01/16 15:42:13;;;;;;;;;;;;;;;7.90;100.00;98901.16;5076207;28;19999;-68
2022/01/16 15:44:40;;;;;;;;;;;;;;;7.90;100.00;98899.19;5086817;28;19962;-69
2022/01/16 15:47:08;;;;;;;;;;;;;;;7.81;100.00;98895.00;5079084;28;19952;-69
2022/01/16 15:49:35;;;;;;;;;;;;;;;7.87;100.00;98899.13;5068291;28;19949;-69
2022/01/16 15:52:03;;;;;;;;;;;;;;;7.80;100.00;98898.97;5078374;28;19946;-69
2022/01/16 15:54:31;;;;;;;;;;;;;;;7.66;100.00;98890.28;5083254;28;19977;-69
2022/01/16 15:57:03;;;;;;;;;;;;;;;7.78;100.00;98890.97;5080377;28;20247;-68
2022/01/16 15:59:31;;;;;;;;;;;;;;;7.75;100.00;98893.69;5088381;28;19949;-68
2022/01/16 16:01:58;;;;;;;;;;;;;;;7.65;100.00;98885.91;5093014;28;19957;-68
2022/01/16 16:04:26;;;;;;;;;;;;;;;7.62;100.00;98883.84;5081357;28;20231;-68
2022/01/16 16:06:53;;;;;;;;;;;;;;;7.53;100.00;98891.63;5077343;28;19971;-68
2022/01/16 16:09:20;;;;;;;;;;;;;;;7.58;100.00;98896.91;5087811;28;19952;-68
2022/01/16 16:11:48;;;;;;;;;;;;;;;7.52;100.00;98896.38;5091115;28;19946;-68
2022/01/16 16:14:15;;;;;;;;;;;;;;;7.49;100.00;98904.63;5077261;28;19953;-69
2022/01/16 16:16:43;;;;;;;;;;;;;;;7.62;100.00;98911.69;5078916;28;19947;-68
2022/01/16 16:19:10;;;;;;;;;;;;;;;7.55;100.00;98904.00;5080834;28;19958;-69
2022/01/16 16:21:38;;;;;;;;;;;;;;;7.56;100.00;98913.94;5085113;28;19947;-69
2022/01/16 16:24:05;;;;;;;;;;;;;;;7.47;100.00;98912.53;5080085;28;19962;-69
2022/01/16 16:26:32;;;;;;;;;;;;;;;7.43;100.00;98931.13;5077329;28;20028;-68
2022/01/16 16:29:01;;;;;;;;;;;;;;;7.38;100.00;98918.31;5087758;28;20353;-68
2022/01/16 16:31:31;;;;;;;;;;;;;;;7.27;100.00;98923.59;5073222;28;20373;-68
2022/01/16 16:33:58;;;;;;;;;;;;;;;7.31;100.00;98908.97;5086665;28;19952;-68
2022/01/16 16:36:26;;;;;;;;;;;;;;;7.24;100.00;98915.97;5087986;28;19957;-68
2022/01/16 16:38:54;;;;;;;;;;;;;;;7.21;100.00;98924.25;5089162;28;19950;-68
2022/01/16 16:41:21;;;;;;;;;;;;;;;7.35;100.00;98924.59;5089906;27;19966;-68
2022/01/16 16:43:48;;;;;;;;;;;;;;;7.39;100.00;98922.69;5091641;28;19979;-69
2022/01/16 16:46:16;;;;;;;;;;;;;;;7.45;100.00;98929.59;5092556;28;19958;-68
2022/01/16 16:48:43;;;;;;;;;;;;;;;7.35;100.00;98932.94;5080018;28;19955;-68
2022/01/16 16:51:10;;;;;;;;;;;;;;;7.28;100.00;98927.19;5094911;28;19955;-68
2022/01/16 16:53:38;;;;;;;;;;;;;;;7.26;100.00;98929.53;5087019;28;19951;-68
2022/01/16 16:56:08;;;;;;;;;;;;;;;7.27;100.00;98945.84;5079354;28;19949;-68
2022/01/16 16:58:35;;;;;;;;;;;;;;;7.21;100.00;98944.50;5072055;28;19953;-69
2022/01/16 17:01:03;;;;;;;;;;;;;;;7.20;100.00;98956.00;5077344;28;19961;-68
2022/01/16 17:03:30;;;;;;;;;;;;;;;7.15;100.00;98954.31;5089497;28;19954;-68
2022/01/16 17:05:58;;;;;;;;;;;;;;;7.17;100.00;98956.72;5081088;28;20301;-69
2022/01/16 17:08:25;;;;;;;;;;;;;;;7.13;100.00;98953.03;5078706;28;19960;-68
2022/01/16 17:10:52;;;;;;;;;;;;;;;7.08;100.00;98956.09;5080612;28;19955;-68
2022/01/16 17:13:20;;;;;;;;;;;;;;;7.05;100.00;98963.19;5081272;28;19949;-69
2022/01/16 17:15:47;;;;;;;;;;;;;;;7.03;100.00;98959.13;5081052;28;19951;-68
2022/01/16 17:18:21;;;;;;;;;;;;;;;7.03;100.00;98965.53;5076194;28;19948;-69
2022/01/16 17:20:50;;;;;;;;;;;;;;;6.91;100.00;98973.94;5078478;28;19954;-69
2022/01/16 17:23:17;;;;;;;;;;;;;;;6.80;100.00;98972.06;5077221;28;20381;-69
2022/01/16 17:25:45;;;;;;;;;;;;;;;6.75;100.00;98978.66;5087311;28;19964;-69
2022/01/16 17:28:12;;;;;;;;;;;;;;;6.63;100.00;98973.97;5074285;28;19949;-68
2022/01/16 17:30:42;;;;;;;;;;;;;;;6.58;100.00;98977.00;5078757;28;19957;-69
2022/01/16 17:33:50;;;;;;;;;;;;;;;6.47;100.00;98977.88;5071430;28;19948;-68
2022/01/16 17:36:18;;;;;;;;;;;;;;;6.42;100.00;98978.13;5071281;28;19956;-68
2022/01/16 17:38:45;;;;;;;;;;;;;;;6.27;100.00;98987.22;5071943;28;19951;-69
2022/01/16 17:41:12;;;;;;;;;;;;;;;6.27;100.00;99001.09;5068628;28;19970;-69
2022/01/16 17:43:40;;;;;;;;;;;;;;;6.20;100.00;98998.94;5066943;28;19950;-69
2022/01/16 17:46:07;;;;;;;;;;;;;;;6.12;100.00;98999.06;5077326;28;20261;-69
2022/01/16 17:48:34;;;;;;;;;;;;;;;6.10;100.00;98999.44;5076624;28;19963;-68
2022/01/16 17:51:02;;;;;;;;;;;;;;;6.11;100.00;99009.41;5079007;28;19951;-67
2022/01/16 17:53:29;;;;;;;;;;;;;;;6.10;100.00;99004.16;5082568;28;19959;-68
2022/01/16 17:55:57;;;;;;;;;;;;;;;6.10;100.00;99010.53;5078966;28;19961;-68
2022/01/16 17:58:24;;;;;;;;;;;;;;;5.97;100.00;99013.72;5082308;28;19950;-66
2022/01/16 18:00:56;;;;;;;;;;;;;;;5.82;100.00;99010.44;5074333;28;19955;-67
2022/01/16 18:03:27;;;;;;;;;;;;;;;5.67;100.00;99013.91;5074692;28;19965;-65
2022/01/16 18:05:56;;;;;;;;;;;;;;;5.62;100.00;99014.19;5069040;28;19973;-65
2022/01/16 18:08:23;;;;;;;;;;;;;;;5.49;100.00;99018.09;5088848;28;19951;-66
2022/01/16 18:10:50;;;;;;;;;;;;;;;5.50;100.00;99003.06;5087801;28;20026;-66
2022/01/16 18:13:18;;;;;;;;;;;;;;;5.50;100.00;99005.06;5075491;28;19949;-67
2022/01/16 18:15:51;;;;;;;;;;;;;;;5.47;100.00;99011.28;5081272;28;19947;-67
2022/01/16 18:18:18;;;;;;;;;;;;;;;5.42;100.00;99015.13;5074113;28;20259;-66
2022/01/16 18:20:46;;;;;;;;;;;;;;;5.39;100.00;99015.78;5074580;28;19965;-65
2022/01/16 18:23:14;;;;;;;;;;;;;;;5.34;100.00;99018.78;5081283;28;20368;-66
2022/01/16 18:25:41;;;;;;;;;;;;;;;5.30;100.00;99020.66;5076323;28;19978;-67
2022/01/16 18:28:09;;;;;;;;;;;;;;;5.30;100.00;99015.09;5069992;28;19962;-65
2022/01/16 18:30:36;;;;;;;;;;;;;;;5.32;100.00;99008.06;5078643;28;19953;-66
2022/01/16 18:33:03;;;;;;;;;;;;;;;5.33;100.00;99017.97;5077495;28;19952;-67
2022/01/16 18:35:31;;;;;;;;;;;;;;;5.36;100.00;99021.22;5091731;28;19946;-67
2022/01/16 18:37:58;;;;;;;;;;;;;;;5.39;100.00;99020.53;5085009;28;19963;-67
2022/01/16 18:40:26;;;;;;;;;;;;;;;5.37;100.00;99020.06;5084593;28;20245;-66
2022/01/16 18:42:56;;;;;;;;;;;;;;;5.33;100.00;99031.84;5080633;28;19995;-68
2022/01/16 18:45:26;;;;;;;;;;;;;;;5.31;100.00;99025.03;5066898;28;19975;-66
2022/01/16 18:48:01;;;;;;;;;;;;;;;5.42;100.00;99031.75;5072462;28;19959;-67
2022/01/16 18:50:31;;;;;;;;;;;;;;;5.36;100.00;99023.97;5071602;28;19948;-67
2022/01/16 18:52:58;;;;;;;;;;;;;;;5.45;100.00;99033.03;5073831;28;20277;-66
2022/01/16 18:55:25;;;;;;;;;;;;;;;5.36;100.00;99030.34;5067392;28;19956;-67
2022/01/16 18:57:53;;;;;;;;;;;;;;;5.39;100.00;99031.63;5074531;28;19946;-67
2022/01/16 19:00:22;;;;;;;;;;;;;;;5.36;100.00;99038.66;5079624;28;19955;-67
2022/01/16 19:02:49;;;;;;;;;;;;;;;5.37;100.00;99036.72;5079119;28;20021;-67
2022/01/16 19:05:17;;;;;;;;;;;;;;;5.39;100.00;99032.44;5085251;28;19962;-68
2022/01/16 19:07:44;;;;;;;;;;;;;;;5.36;100.00;99037.84;5077215;28;19948;-68
2022/01/16 19:10:12;;;;;;;;;;;;;;;5.38;100.00;99039.13;5088103;28;19946;-68
2022/01/16 19:12:39;;;;;;;;;;;;;;;5.40;100.00;99050.72;5080164;28;19958;-68
2022/01/16 19:15:07;;;;;;;;;;;;;;;5.39;100.00;99042.72;5092562;28;19950;-68
2022/01/16 19:17:34;;;;;;;;;;;;;;;5.33;100.00;99045.72;5085319;28;19950;-68
2022/01/16 19:20:02;;;;;;;;;;;;;;;5.31;100.00;99048.03;5089985;28;20341;-68
2022/01/16 19:22:31;;;;;;;;;;;;;;;5.35;100.00;99041.78;5084158;28;19952;-68
2022/01/16 19:24:58;;;;;;;;;;;;;;;5.31;100.00;99063.84;5077357;28;20267;-68
2022/01/16 19:27:26;;;;;;;;;;;;;;;5.32;100.00;99063.53;5080436;28;19947;-68
2022/01/16 19:29:53;;;;;;;;;;;;;;;5.33;100.00;99064.31;5073574;28;19983;-67
2022/01/16 19:32:21;;;;;;;;;;;;;;;5.33;100.00;99075.41;5083079;28;19954;-68
2022/01/16 19:34:50;;;;;;;;;;;;;;;5.27;100.00;99085.13;5074306;28;19962;-68
2022/01/16 19:37:17;;;;;;;;;;;;;;;5.23;100.00;99093.28;5082654;28;19959;-68
2022/01/16 19:39:45;;;;;;;;;;;;;;;5.23;100.00;99095.28;5063917;28;20219;-68
2022/01/16 19:42:17;;;;;;;;;;;;;;;5.17;100.00;99097.47;5070209;28;19965;-68
2022/01/16 19:44:45;;;;;;;;;;;;;;;5.17;100.00;99104.97;5069055;28;20401;-68
2022/01/16 19:47:16;;;;;;;;;;;;;;;5.19;100.00;99105.41;5066116;28;19957;-68
2022/01/16 19:49:44;;;;;;;;;;;;;;;5.25;100.00;99106.84;5074897;28;19959;-68
2022/01/16 19:52:11;;;;;;;;;;;;;;;5.26;100.00;99113.97;5080767;28;19952;-68
2022/01/16 19:54:41;;;;;;;;;;;;;;;5.30;100.00;99118.53;5075777;28;19964;-68
2022/01/16 19:57:08;;;;;;;;;;;;;;;5.28;100.00;99125.56;5079270;28;20308;-67
2022/01/16 19:59:37;;;;;;;;;;;;;;;5.25;100.00;99123.47;5076106;28;20211;-68
2022/01/16 20:02:05;;;;;;;;;;;;;;;5.25;100.00;99131.78;5085572;28;19947;-69
2022/01/16 20:04:32;;;;;;;;;;;;;;;5.32;100.00;99132.84;5086251;28;19957;-69
2022/01/16 20:07:00;;;;;;;;;;;;;;;5.39;100.00;99134.22;5085788;28;19965;-68
2022/01/16 20:09:28;;;;;;;;;;;;;;;5.43;100.00;99133.19;5082545;28;19964;-67
2022/01/16 20:11:56;;;;;;;;;;;;;;;5.43;100.00;99133.19;5081872;28;19953;-68
2022/01/16 20:14:23;;;;;;;;;;;;;;;5.38;100.00;99130.66;5083939;28;19959;-68
2022/01/16 20:16:50;;;;;;;;;;;;;;;5.36;100.00;99132.94;5081996;28;20239;-69
2022/01/16 20:19:18;;;;;;;;;;;;;;;5.37;100.00;99139.31;5083343;28;19975;-70
2022/01/16 20:21:45;;;;;;;;;;;;;;;5.34;100.00;99143.59;5079584;28;20332;-69
2022/01/16 20:24:12;;;;;;;;;;;;;;;5.38;100.00;99149.28;5080064;28;19949;-68
2022/01/16 20:26:41;;;;;;;;;;;;;;;5.37;100.00;99147.63;5080347;28;19974;-68
2022/01/16 20:29:08;;;;;;;;;;;;;;;5.33;100.00;99137.22;5086143;28;19954;-69
2022/01/16 20:36:27;;;;;;;;;;;;;;;5.17;100.00;99146.53;5079540;28;20215;-70
2022/01/16 20:38:54;;;;;;;;;;;;;;;5.07;100.00;99138.66;5071289;28;19949;-69
2022/01/16 20:41:22;;;;;;;;;;;;;;;4.98;100.00;99143.47;5072598;28;19991;-69
2022/01/16 20:43:49;;;;;;;;;;;;;;;4.91;100.00;99140.44;5073157;28;19954;-68
2022/01/16 20:46:16;;;;;;;;;;;;;;;4.87;100.00;99150.56;5076895;28;19965;-68
2022/01/16 20:48:44;;;;;;;;;;;;;;;4.84;100.00;99151.28;5092384;28;20361;-68